createdAt,value
2019-04-10T00:04:23.215Z,11.41
2019-04-10T00:09:29.183Z,11.29
2019-04-10T00:14:34.588Z,11.30
2019-04-10T00:19:40.069Z,11.25
2019-04-10T00:24:46.254Z,10.96
2019-04-10T00:29:52.312Z,10.67
2019-04-10T00:34:58.213Z,10.59
2019-04-10T00:40:03.655Z,10.59
2019-04-10T00:45:09.398Z,10.60
2019-04-10T00:50:14.755Z,10.40
2019-04-10T00:55:20.136Z,10.06
2019-04-10T01:00:25.599Z,9.69
2019-04-10T01:05:31.123Z,9.52
2019-04-10T01:10:36.733Z,9.52
2019-04-10T01:15:42.705Z,9.44
2019-04-10T01:20:48.084Z,9.43
2019-04-10T01:25:53.503Z,9.44
2019-04-10T01:30:59.160Z,9.36
2019-04-10T01:36:04.853Z,9.52
2019-04-10T01:41:10.304Z,9.37
2019-04-10T01:46:15.922Z,9.30
2019-04-10T01:51:21.445Z,9.23
2019-04-10T01:56:31.614Z,9.20
2019-04-10T02:01:38.824Z,9.18
2019-04-10T02:06:45.181Z,9.14
2019-04-10T02:11:50.770Z,9.09
2019-04-10T02:16:57.028Z,9.02
2019-04-10T02:22:02.474Z,8.93
2019-04-10T02:27:07.920Z,8.86
2019-04-10T02:32:14.566Z,8.85
2019-04-10T02:37:19.925Z,8.77
2019-04-10T02:42:26.617Z,8.78
2019-04-10T02:47:32.447Z,8.72
2019-04-10T02:52:40.143Z,8.69
2019-04-10T02:57:45.913Z,8.76
2019-04-10T03:02:54.805Z,8.75
2019-04-10T03:08:00.321Z,8.80
2019-04-10T03:13:05.935Z,8.76
2019-04-10T03:18:11.248Z,8.71
2019-04-10T03:23:17.563Z,8.69
2019-04-10T03:28:23.034Z,8.62
2019-04-10T03:33:39.686Z,8.58
2019-04-10T03:38:55.316Z,8.56
2019-04-10T03:43:50.921Z,8.51
2019-04-10T03:48:56.387Z,8.53
2019-04-10T03:54:02.619Z,8.45
2019-04-10T03:59:08.391Z,8.46
2019-04-10T04:04:13.914Z,8.49
2019-04-10T04:09:19.614Z,8.51
2019-04-10T04:14:24.882Z,8.45
2019-04-10T04:19:31.069Z,8.44
2019-04-10T04:24:36.415Z,8.44
2019-04-10T04:29:41.656Z,8.42
2019-04-10T04:34:47.464Z,8.41
2019-04-10T04:39:52.856Z,8.34
2019-04-10T04:44:58.346Z,8.48
2019-04-10T04:50:03.714Z,8.50
2019-04-10T04:55:10.073Z,8.72
2019-04-10T05:00:15.656Z,8.96
2019-04-10T05:05:21.014Z,8.79
2019-04-10T05:10:26.315Z,8.76
2019-04-10T05:15:31.555Z,8.70
2019-04-10T05:20:44.170Z,8.86
2019-04-10T05:25:43.777Z,8.71
2019-04-10T05:30:49.107Z,8.57
2019-04-10T05:35:54.993Z,8.57
2019-04-10T05:41:01.388Z,8.91
2019-04-10T05:46:07.150Z,9.04
2019-04-10T05:51:12.618Z,9.06
2019-04-10T05:56:19.023Z,8.89
2019-04-10T06:01:33.239Z,8.96
2019-04-10T06:06:32.631Z,9.05
2019-04-10T06:11:39.326Z,8.95
2019-04-10T06:16:44.929Z,8.87
2019-04-10T06:21:50.449Z,8.80
2019-04-10T06:26:56.178Z,8.81
2019-04-10T06:32:01.771Z,9.10
2019-04-10T06:37:08.089Z,9.10
2019-04-10T06:42:14.240Z,9.20
2019-04-10T06:47:20.321Z,9.24
2019-04-10T06:52:25.645Z,9.08
2019-04-10T06:57:30.995Z,9.05
2019-04-10T07:02:38.956Z,9.10
2019-04-10T07:07:51.378Z,9.24
2019-04-10T07:12:51.381Z,9.28
2019-04-10T07:17:56.811Z,9.61
2019-04-10T07:23:03.039Z,9.65
2019-04-10T07:28:10.499Z,9.37
2019-04-10T07:33:18.057Z,9.32
2019-04-10T07:38:22.862Z,9.35
2019-04-10T07:43:29.487Z,9.31
2019-04-10T07:48:35.623Z,9.39
2019-04-10T07:53:41.468Z,9.39
2019-04-10T07:58:46.908Z,9.37
2019-04-10T08:03:53.009Z,9.40
2019-04-10T08:08:59.295Z,9.50
2019-04-10T08:14:06.776Z,9.51
2019-04-10T08:19:12.410Z,9.65
2019-04-10T08:24:18.201Z,9.87
2019-04-10T08:29:23.981Z,10.12
2019-04-10T08:34:29.315Z,10.34
2019-04-10T08:39:41.170Z,10.59
2019-04-10T08:44:42.458Z,10.54
2019-04-10T08:49:47.971Z,10.36
2019-04-10T08:54:53.375Z,10.26
2019-04-10T08:59:58.930Z,10.36
2019-04-10T09:05:05.603Z,10.26
2019-04-10T09:10:12.297Z,10.51
2019-04-10T09:15:18.209Z,10.65
2019-04-10T09:20:24.794Z,11.00
2019-04-10T09:25:31.210Z,11.61
2019-04-10T09:30:37.215Z,12.57
2019-04-10T09:35:42.856Z,13.56
2019-04-10T09:40:48.820Z,14.22
2019-04-10T09:45:54.283Z,15.32
2019-04-10T09:51:00.291Z,16.67
2019-04-10T09:56:05.775Z,17.16
2019-04-10T10:01:15.984Z,17.53
2019-04-10T10:06:27.140Z,17.66
2019-04-10T10:11:28.759Z,17.59
2019-04-10T10:16:35.833Z,17.38
2019-04-10T10:21:41.515Z,17.39
2019-04-10T10:26:47.244Z,17.03
2019-04-10T10:31:53.629Z,16.75
2019-04-10T10:37:00.143Z,16.80
2019-04-10T10:42:05.715Z,17.07
2019-04-10T10:47:11.792Z,17.36
2019-04-10T10:52:17.552Z,18.24
2019-04-10T10:57:24.889Z,18.72
2019-04-10T11:02:30.390Z,18.41
2019-04-10T11:07:35.951Z,18.10
2019-04-10T11:12:42.338Z,18.25
2019-04-10T11:17:47.717Z,18.01
2019-04-10T11:22:55.835Z,18.08
2019-04-10T11:28:01.291Z,18.14
2019-04-10T11:33:08.437Z,18.16
2019-04-10T11:38:16.070Z,18.36
2019-04-10T11:43:21.568Z,19.02
2019-04-10T11:48:29.107Z,19.18
2019-04-10T11:53:37.480Z,19.13
2019-04-10T11:58:49.457Z,18.29
2019-04-10T12:03:51.677Z,18.43
2019-04-10T12:09:19.470Z,18.22
2019-04-10T12:14:03.051Z,18.42
2019-04-10T12:19:08.492Z,18.51
2019-04-10T12:24:16.035Z,18.77
2019-04-10T12:29:20.858Z,18.84
2019-04-10T12:34:26.535Z,18.65
2019-04-10T12:39:32.196Z,18.78
2019-04-10T12:44:38.670Z,19.24
2019-04-10T12:49:44.583Z,19.19
2019-04-10T12:54:51.195Z,17.95
2019-04-10T13:00:01.204Z,17.95
2019-04-10T13:05:05.040Z,17.97
2019-04-10T13:10:15.993Z,18.20
2019-04-10T13:15:21.386Z,17.80
2019-04-10T13:20:26.771Z,17.73
2019-04-10T13:25:32.494Z,17.51
2019-04-10T13:30:46.909Z,17.14
2019-04-10T13:35:46.212Z,17.21
2019-04-10T13:40:52.215Z,16.92
2019-04-10T13:45:57.590Z,17.00
2019-04-10T13:51:03.382Z,17.04
2019-04-10T13:56:08.846Z,16.51
2019-04-10T14:01:19.676Z,16.23
2019-04-10T14:06:27.649Z,16.46
2019-04-10T14:11:33.355Z,16.51
2019-04-10T14:16:39.060Z,16.15
2019-04-10T14:21:45.038Z,16.23
2019-04-10T14:26:58.528Z,16.25
2019-04-10T14:32:07.144Z,16.20
2019-04-10T14:37:13.839Z,15.41
2019-04-10T14:42:19.190Z,15.31
2019-04-10T14:47:25.522Z,15.31
2019-04-10T14:52:31.162Z,15.20
2019-04-10T14:57:36.942Z,15.13
2019-04-10T15:02:43.046Z,15.28
2019-04-10T15:07:48.626Z,15.54
2019-04-10T15:12:54.035Z,15.18
2019-04-10T15:17:59.264Z,14.86
2019-04-10T15:23:05.119Z,14.73
2019-04-10T15:28:10.520Z,14.62
2019-04-10T15:33:15.976Z,14.33
2019-04-10T15:38:21.983Z,14.20
2019-04-10T15:43:29.438Z,14.06
2019-04-10T15:48:35.608Z,13.32
2019-04-10T15:53:41.094Z,12.56
2019-04-10T15:58:47.881Z,12.17
2019-04-10T16:03:53.288Z,11.83
2019-04-10T16:08:58.868Z,11.60
2019-04-10T16:14:17.015Z,11.54
2019-04-10T16:19:22.238Z,11.14
2019-04-10T16:24:28.911Z,11.08
2019-04-10T16:29:34.757Z,11.00
2019-04-10T16:34:40.889Z,10.95
2019-04-10T16:39:57.855Z,10.83
2019-04-10T16:44:54.958Z,10.65
2019-04-10T16:50:01.210Z,10.57
2019-04-10T16:55:08.390Z,10.33
2019-04-10T17:00:16.682Z,10.31
2019-04-10T17:05:22.659Z,10.08
2019-04-10T17:10:32.327Z,10.05
2019-04-10T17:15:37.736Z,9.91
2019-04-10T17:20:43.114Z,9.88
2019-04-10T17:25:48.778Z,9.58
2019-04-10T17:30:54.805Z,9.50
2019-04-10T17:36:00.268Z,9.53
2019-04-10T17:41:07.024Z,9.44
2019-04-10T17:46:13.242Z,9.42
2019-04-10T17:51:19.775Z,9.30
2019-04-10T17:56:28.348Z,9.21
2019-04-10T18:01:34.737Z,9.15
2019-04-10T18:06:43.120Z,9.12
2019-04-10T18:11:47.768Z,8.93
2019-04-10T18:16:54.094Z,8.86
2019-04-10T18:22:00.499Z,8.61
2019-04-10T18:27:05.977Z,8.63
2019-04-10T18:32:11.768Z,8.40
2019-04-10T18:37:22.044Z,8.26
2019-04-10T18:42:26.608Z,8.30
2019-04-10T18:47:36.066Z,8.32
2019-04-10T18:52:39.616Z,8.16
2019-04-10T18:57:45.248Z,8.24
2019-04-10T19:02:57.779Z,8.29
2019-04-10T19:08:03.255Z,8.50
2019-04-10T19:13:09.759Z,8.38
2019-04-10T19:18:15.286Z,8.45
2019-04-10T19:23:21.053Z,8.58
2019-04-10T19:28:33.944Z,8.53
2019-04-10T19:33:37.262Z,8.38
2019-04-10T19:38:43.957Z,8.44
2019-04-10T19:43:50.510Z,8.38
2019-04-10T19:48:56.084Z,8.41
2019-04-10T19:54:03.107Z,8.67
2019-04-10T19:59:08.635Z,8.63
2019-04-10T20:04:14.500Z,8.80
2019-04-10T20:09:22.197Z,8.95
2019-04-10T20:14:28.455Z,8.81
2019-04-10T20:19:34.871Z,8.81
2019-04-10T20:24:40.945Z,8.83
2019-04-10T20:29:47.608Z,8.85
2019-04-10T20:34:53.868Z,8.71
2019-04-10T20:40:03.439Z,8.61
2019-04-10T20:45:09.361Z,8.60
2019-04-10T20:50:15.424Z,8.74
2019-04-10T20:55:22.075Z,8.73
2019-04-10T21:00:30.072Z,8.79
2019-04-10T21:05:35.911Z,8.76
2019-04-10T21:10:41.152Z,8.70
2019-04-10T21:15:46.423Z,8.63
2019-04-10T21:20:51.828Z,8.64
2019-04-10T21:25:57.470Z,8.43
2019-04-10T21:31:22.252Z,8.03
2019-04-10T21:36:28.394Z,7.73
2019-04-10T21:41:34.703Z,7.56
2019-04-10T21:46:40.997Z,7.19
2019-04-10T21:51:46.406Z,7.05
2019-04-10T21:56:51.609Z,6.79
2019-04-10T22:01:57.056Z,6.79
2019-04-10T22:07:11.874Z,6.85
2019-04-10T22:12:29.774Z,6.93
2019-04-10T22:17:29.040Z,6.81
2019-04-10T22:22:35.085Z,6.84
2019-04-10T22:27:41.400Z,6.85
2019-04-10T22:32:47.152Z,6.71
2019-04-10T22:37:52.470Z,6.41
2019-04-10T22:42:57.804Z,6.32
2019-04-10T22:48:04.150Z,6.22
2019-04-10T22:53:09.762Z,6.02
2019-04-10T22:58:15.073Z,6.10
2019-04-10T23:03:20.407Z,6.16
2019-04-10T23:08:25.578Z,6.24
2019-04-10T23:13:32.009Z,6.05
2019-04-10T23:18:37.558Z,5.99
2019-04-10T23:23:43.306Z,5.88
2019-04-10T23:28:49.544Z,5.57
2019-04-10T23:33:54.998Z,5.25
2019-04-10T23:39:00.151Z,5.40
2019-04-10T23:44:05.466Z,5.54
2019-04-10T23:49:11.171Z,5.38
2019-04-10T23:54:17.263Z,5.32
2019-04-10T23:59:22.557Z,5.34
